createdAt,value
2018-11-28T00:00:27.382Z,0
2018-11-28T00:01:27.895Z,0
2018-11-28T00:02:28.125Z,0
2018-11-28T00:03:28.960Z,0
2018-11-28T00:04:29.739Z,0
2018-11-28T00:05:30.518Z,0
2018-11-28T00:06:31.021Z,0
2018-11-28T00:07:31.833Z,0
2018-11-28T00:08:32.890Z,0
2018-11-28T00:09:34.230Z,0
2018-11-28T00:10:33.732Z,0
2018-11-28T00:11:34.514Z,0
2018-11-28T00:12:34.741Z,0
2018-11-28T00:13:35.736Z,0
2018-11-28T00:14:37.236Z,0
2018-11-28T00:15:38.020Z,0
2018-11-28T00:16:38.575Z,0
2018-11-28T00:17:39.170Z,0
2018-11-28T00:18:40.785Z,0
2018-11-28T00:19:41.289Z,0
2018-11-28T00:20:41.794Z,0
2018-11-28T00:21:42.570Z,0
2018-11-28T00:22:43.632Z,0
2018-11-28T00:23:44.461Z,0
2018-11-28T00:24:45.518Z,0
2018-11-28T00:25:45.745Z,0
2018-11-28T00:26:48.358Z,0
2018-11-28T00:27:48.138Z,0
2018-11-28T00:28:48.919Z,0
2018-11-28T00:29:49.423Z,0
2018-11-28T00:30:50.925Z,0
2018-11-28T00:31:51.159Z,0
2018-11-28T00:32:53.215Z,0
2018-11-28T00:33:53.493Z,0
2018-11-28T00:34:54.719Z,0
2018-11-28T00:35:56.221Z,0
2018-11-28T00:36:56.448Z,0
2018-11-28T00:37:57.674Z,0
2018-11-28T00:38:58.176Z,0
2018-11-28T00:39:59.678Z,0
2018-11-28T00:41:00.228Z,0
2018-11-28T00:42:01.008Z,0
2018-11-28T00:43:02.064Z,0
2018-11-28T00:44:02.896Z,0
2018-11-28T00:45:03.956Z,0
2018-11-28T00:46:04.742Z,0
2018-11-28T00:47:05.800Z,0
2018-11-28T00:48:06.345Z,0
2018-11-28T00:49:06.849Z,0
2018-11-28T00:50:07.681Z,0
2018-11-28T00:51:07.906Z,0
2018-11-28T00:52:08.685Z,0
2018-11-28T00:53:08.911Z,0
2018-11-28T00:54:09.787Z,0
2018-11-28T00:55:10.287Z,0
2018-11-28T00:56:10.511Z,0
2018-11-28T00:57:12.287Z,0
2018-11-28T00:58:13.071Z,0
2018-11-28T00:59:13.295Z,0
2018-11-28T01:00:14.087Z,0
2018-11-28T01:01:14.626Z,0
2018-11-28T01:02:15.132Z,0
2018-11-28T01:03:15.632Z,0
2018-11-28T01:04:16.631Z,0
2018-11-28T01:05:17.860Z,0
2018-11-28T01:06:19.643Z,0
2018-11-28T01:07:20.150Z,0
2018-11-28T01:08:20.646Z,0
2018-11-28T01:09:21.868Z,0
2018-11-28T01:10:23.095Z,0
2018-11-28T01:11:24.599Z,0
2018-11-28T01:12:25.381Z,0
2018-11-28T01:13:25.607Z,0
2018-11-28T01:14:26.613Z,0
2018-11-28T01:15:27.836Z,0
2018-11-28T01:16:28.619Z,0
2018-11-28T01:17:29.401Z,0
2018-11-28T01:18:29.905Z,0
2018-11-28T01:19:30.130Z,0
2018-11-28T01:20:31.463Z,0
2018-11-28T01:21:32.247Z,0
2018-11-28T01:22:32.749Z,0
2018-11-28T01:23:34.808Z,0
2018-11-28T01:24:35.369Z,0
2018-11-28T01:25:36.147Z,0
2018-11-28T01:26:36.942Z,0
2018-11-28T01:27:50.206Z,0
2018-11-28T01:28:50.343Z,0
2018-11-28T01:29:51.127Z,0
2018-11-28T01:30:52.180Z,0
2018-11-28T01:31:52.683Z,0
2018-11-28T01:32:53.258Z,0
2018-11-28T01:33:53.476Z,0
2018-11-28T01:34:54.979Z,0
2018-11-28T01:35:55.479Z,0
2018-11-28T01:36:56.986Z,0
2018-11-28T01:37:57.209Z,0
2018-11-28T01:38:59.039Z,0
2018-11-28T01:40:00.093Z,0
2018-11-28T01:41:00.877Z,0
2018-11-28T01:42:01.379Z,0
2018-11-28T01:43:01.880Z,0
2018-11-28T01:44:02.941Z,0
2018-11-28T01:45:03.720Z,0
2018-11-28T01:46:05.059Z,0
2018-11-28T01:47:05.555Z,0
2018-11-28T01:48:05.783Z,0
2018-11-28T01:49:07.059Z,0
2018-11-28T01:50:08.567Z,0
2018-11-28T01:51:09.089Z,0
2018-11-28T01:52:10.861Z,0
2018-11-28T01:53:11.086Z,0
2018-11-28T01:54:12.595Z,0
2018-11-28T01:55:14.373Z,0
2018-11-28T01:56:15.464Z,0
2018-11-28T01:57:16.518Z,0
2018-11-28T01:58:16.742Z,0
2018-11-28T01:59:17.851Z,0
2018-11-28T02:00:18.912Z,0
2018-11-28T02:01:19.703Z,0
2018-11-28T02:02:21.041Z,0
2018-11-28T02:03:21.127Z,0
2018-11-28T02:04:21.630Z,0
2018-11-28T02:05:22.148Z,0
2018-11-28T02:06:23.200Z,0
2018-11-28T02:07:23.981Z,0
2018-11-28T02:08:24.757Z,0
2018-11-28T02:09:25.864Z,0
2018-11-28T02:10:26.370Z,0
2018-11-28T02:11:27.428Z,0
2018-11-28T02:12:28.532Z,0
2018-11-28T02:13:29.304Z,0
2018-11-28T02:14:30.083Z,0
2018-11-28T02:15:30.586Z,0
2018-11-28T02:16:30.804Z,0
2018-11-28T02:17:32.579Z,0
2018-11-28T02:18:33.080Z,0
2018-11-28T02:19:33.650Z,0
2018-11-28T02:20:34.707Z,0
2018-11-28T02:21:35.764Z,0
2018-11-28T02:22:36.820Z,0
2018-11-28T02:23:37.326Z,0
2018-11-28T02:24:37.834Z,0
2018-11-28T02:25:38.610Z,0
2018-11-28T02:26:39.115Z,0
2018-11-28T02:27:40.780Z,0
2018-11-28T02:28:41.564Z,0
2018-11-28T02:29:41.839Z,0
2018-11-28T02:30:43.516Z,0
2018-11-28T02:31:44.416Z,0
2018-11-28T02:32:44.475Z,0
2018-11-28T02:33:45.273Z,0
2018-11-28T02:34:46.330Z,0
2018-11-28T02:35:46.388Z,0
2018-11-28T02:36:47.164Z,0
2018-11-28T02:37:47.685Z,0
2018-11-28T02:38:49.026Z,0
2018-11-28T02:39:50.141Z,0
2018-11-28T02:40:50.214Z,0
2018-11-28T02:41:49.989Z,0
2018-11-28T02:42:51.375Z,0
2018-11-28T02:43:52.159Z,0
2018-11-28T02:44:52.936Z,0
2018-11-28T02:45:53.443Z,0
2018-11-28T02:46:54.254Z,0
2018-11-28T02:47:54.811Z,0
2018-11-28T02:48:56.172Z,0
2018-11-28T02:49:56.590Z,0
2018-11-28T02:50:57.648Z,0
2018-11-28T02:51:57.999Z,0
2018-11-28T02:52:59.054Z,0
2018-11-28T02:53:59.835Z,0
2018-11-28T02:55:00.341Z,0
2018-11-28T02:56:01.408Z,0
2018-11-28T02:57:01.914Z,0
2018-11-28T02:58:03.981Z,0
2018-11-28T02:59:04.602Z,0
2018-11-28T03:00:05.167Z,0
2018-11-28T03:01:06.236Z,0
2018-11-28T03:02:06.290Z,0
2018-11-28T03:03:07.623Z,0
2018-11-28T03:04:07.412Z,0
2018-11-28T03:05:07.916Z,0
2018-11-28T03:06:08.431Z,0
2018-11-28T03:07:08.949Z,0
2018-11-28T03:08:10.281Z,0
2018-11-28T03:09:11.101Z,0
2018-11-28T03:10:11.228Z,0
2018-11-28T03:11:12.576Z,0
2018-11-28T03:12:13.914Z,0
2018-11-28T03:13:14.692Z,0
2018-11-28T03:14:16.301Z,0
2018-11-28T03:15:17.374Z,0
2018-11-28T03:16:18.153Z,0
2018-11-28T03:17:19.506Z,0
2018-11-28T03:18:19.292Z,0
2018-11-28T03:19:20.919Z,0
2018-11-28T03:20:21.614Z,0
2018-11-28T03:21:21.131Z,0
2018-11-28T03:22:22.194Z,0
2018-11-28T03:23:22.982Z,0
2018-11-28T03:24:23.782Z,0
2018-11-28T03:25:24.291Z,0
2018-11-28T03:26:25.074Z,0
2018-11-28T03:27:25.851Z,0
2018-11-28T03:28:27.357Z,0
2018-11-28T03:29:28.581Z,0
2018-11-28T03:30:29.780Z,0
2018-11-28T03:31:30.948Z,0
2018-11-28T03:32:32.699Z,0
2018-11-28T03:33:33.460Z,0
2018-11-28T03:34:33.100Z,0
2018-11-28T03:35:33.154Z,0
2018-11-28T03:36:34.774Z,0
2018-11-28T03:37:36.391Z,0
2018-11-28T03:38:37.004Z,0
2018-11-28T03:39:37.784Z,0
2018-11-28T03:40:39.013Z,0
2018-11-28T03:41:40.625Z,0
2018-11-28T03:42:40.704Z,0
2018-11-28T03:43:41.488Z,0
2018-11-28T03:44:42.561Z,0
2018-11-28T03:45:43.941Z,0
2018-11-28T03:46:44.719Z,0
2018-11-28T03:47:46.501Z,0
2018-11-28T03:48:47.001Z,0
2018-11-28T03:49:47.502Z,0
2018-11-28T03:50:49.446Z,0
2018-11-28T03:51:49.795Z,0
2018-11-28T03:52:50.580Z,0
2018-11-28T03:53:51.912Z,0
2018-11-28T03:54:52.137Z,0
2018-11-28T03:55:53.915Z,0
2018-11-28T03:56:55.180Z,0
2018-11-28T03:57:55.568Z,0
2018-11-28T03:58:55.904Z,0
2018-11-28T03:59:56.692Z,0
2018-11-28T04:00:57.306Z,0
2018-11-28T04:01:58.373Z,0
2018-11-28T04:02:58.446Z,0
2018-11-28T04:03:59.528Z,0
2018-11-28T04:05:00.581Z,0
2018-11-28T04:06:01.636Z,0
2018-11-28T04:07:01.982Z,0
2018-11-28T04:08:02.475Z,0
2018-11-28T04:09:02.994Z,0
2018-11-28T04:10:04.621Z,0
2018-11-28T04:11:05.741Z,0
2018-11-28T04:12:06.246Z,0
2018-11-28T04:13:07.026Z,0
2018-11-28T04:14:08.644Z,0
2018-11-28T04:15:08.701Z,0
2018-11-28T04:16:09.763Z,0
2018-11-28T04:17:10.842Z,0
2018-11-28T04:18:11.899Z,0
2018-11-28T04:19:12.688Z,0
2018-11-28T04:20:13.196Z,0
2018-11-28T04:21:13.762Z,0
2018-11-28T04:22:15.118Z,0
2018-11-28T04:23:15.455Z,0
2018-11-28T04:24:16.261Z,0
2018-11-28T04:25:17.610Z,0
2018-11-28T04:26:17.710Z,0
2018-11-28T04:27:19.065Z,0
2018-11-28T04:28:18.586Z,0
2018-11-28T04:29:19.366Z,0
2018-11-28T04:30:19.909Z,0
2018-11-28T04:31:20.790Z,0
2018-11-28T04:32:21.569Z,0
2018-11-28T04:33:22.634Z,0
2018-11-28T04:34:23.414Z,0
2018-11-28T04:35:24.528Z,0
2018-11-28T04:36:25.317Z,0
2018-11-28T04:37:26.369Z,0
2018-11-28T04:38:26.429Z,0
2018-11-28T04:39:27.484Z,0
2018-11-28T04:40:29.114Z,0
2018-11-28T04:41:29.535Z,0
2018-11-28T04:42:30.316Z,0
2018-11-28T04:43:32.533Z,0
2018-11-28T04:44:32.034Z,0
2018-11-28T04:45:33.382Z,0
2018-11-28T04:46:34.719Z,0
2018-11-28T04:47:35.786Z,0
2018-11-28T04:48:36.618Z,0
2018-11-28T04:49:37.687Z,0
2018-11-28T04:50:38.467Z,0
2018-11-28T04:51:39.586Z,0
2018-11-28T04:52:40.384Z,0
2018-11-28T04:53:41.492Z,0
2018-11-28T04:54:42.550Z,0
2018-11-28T04:55:43.611Z,0
2018-11-28T04:56:44.392Z,0
2018-11-28T04:57:45.175Z,0
2018-11-28T04:58:46.516Z,0
2018-11-28T04:59:47.863Z,0
2018-11-28T05:00:47.415Z,0
2018-11-28T05:01:48.019Z,0
2018-11-28T05:02:49.365Z,0
2018-11-28T05:03:49.596Z,0
2018-11-28T05:04:51.661Z,0
2018-11-28T05:05:52.444Z,0
2018-11-28T05:06:52.997Z,0
2018-11-28T05:07:54.889Z,0
2018-11-28T05:08:54.115Z,0
2018-11-28T05:09:55.894Z,0
2018-11-28T05:10:56.681Z,0
2018-11-28T05:11:56.805Z,0
2018-11-28T05:12:58.425Z,0
2018-11-28T05:13:57.932Z,0
2018-11-28T05:14:58.436Z,0
2018-11-28T05:15:59.492Z,0
2018-11-28T05:16:59.717Z,0
2018-11-28T05:18:01.500Z,0
2018-11-28T05:19:02.286Z,0
2018-11-28T05:20:03.341Z,0
2018-11-28T05:21:04.122Z,0
2018-11-28T05:22:05.228Z,0
2018-11-28T05:23:05.504Z,0
2018-11-28T05:24:06.021Z,0
2018-11-28T05:25:07.245Z,0
2018-11-28T05:26:08.470Z,0
2018-11-28T05:27:09.252Z,0
2018-11-28T05:28:09.755Z,0
2018-11-28T05:29:10.259Z,0
2018-11-28T05:30:11.314Z,0
2018-11-28T05:31:11.821Z,0
2018-11-28T05:32:12.820Z,0
2018-11-28T05:33:14.318Z,0
2018-11-28T05:34:15.819Z,0
2018-11-28T05:35:16.873Z,0
2018-11-28T05:36:17.374Z,0
2018-11-28T05:37:19.008Z,0
2018-11-28T05:38:19.063Z,0
2018-11-28T05:39:20.123Z,0
2018-11-28T05:40:20.917Z,0
2018-11-28T05:41:21.420Z,0
2018-11-28T05:42:22.697Z,0
2018-11-28T05:43:24.028Z,0
2018-11-28T05:44:24.259Z,0
2018-11-28T05:45:26.038Z,0
2018-11-28T05:46:26.263Z,0
2018-11-28T05:47:27.490Z,0
2018-11-28T05:48:27.988Z,0
2018-11-28T05:49:31.251Z,0
2018-11-28T05:50:30.470Z,0
2018-11-28T05:51:32.250Z,0
2018-11-28T05:52:32.526Z,0
2018-11-28T05:53:33.026Z,0
2018-11-28T05:54:33.808Z,0
2018-11-28T05:55:34.589Z,0
2018-11-28T05:56:35.368Z,0
2018-11-28T05:57:36.870Z,0
2018-11-28T05:58:37.371Z,0
2018-11-28T05:59:37.594Z,0
2018-11-28T06:00:39.378Z,0
2018-11-28T06:01:39.156Z,0
2018-11-28T06:02:40.153Z,0
2018-11-28T06:03:42.211Z,0
2018-11-28T06:04:42.988Z,0
2018-11-28T06:05:43.272Z,0
2018-11-28T06:06:44.051Z,0
2018-11-28T06:07:44.553Z,0
2018-11-28T06:08:45.610Z,0
2018-11-28T06:09:45.828Z,0
2018-11-28T06:10:47.165Z,0
2018-11-28T06:11:46.667Z,0
2018-11-28T06:12:46.947Z,0
2018-11-28T06:13:48.453Z,0
2018-11-28T06:14:49.340Z,0
2018-11-28T06:15:50.121Z,0
2018-11-28T06:16:51.188Z,0
2018-11-28T06:17:51.969Z,0
2018-11-28T06:18:52.469Z,0
2018-11-28T06:19:53.695Z,0
2018-11-28T06:20:55.031Z,0
2018-11-28T06:21:55.814Z,0
2018-11-28T06:22:56.369Z,0
2018-11-28T06:23:57.149Z,0
2018-11-28T06:24:57.929Z,0
2018-11-28T06:25:58.430Z,0
2018-11-28T06:26:59.208Z,0
2018-11-28T06:27:59.709Z,0
2018-11-28T06:29:00.212Z,0
2018-11-28T06:30:01.267Z,5.63
2018-11-28T06:31:02.328Z,5.63
2018-11-28T06:32:03.125Z,5.63
2018-11-28T06:33:03.674Z,5.63
2018-11-28T06:34:04.178Z,5.63
2018-11-28T06:35:05.287Z,5.63
2018-11-28T06:36:06.929Z,11.25
2018-11-28T06:37:06.707Z,11.25
2018-11-28T06:38:07.215Z,11.25
2018-11-28T06:39:08.000Z,11.25
2018-11-28T06:40:08.506Z,11.25
2018-11-28T06:41:09.295Z,16.88
2018-11-28T06:42:10.636Z,16.88
2018-11-28T06:43:10.914Z,16.88
2018-11-28T06:44:12.696Z,16.88
2018-11-28T06:45:13.478Z,22.5
2018-11-28T06:46:14.298Z,22.5
2018-11-28T06:47:14.525Z,22.5
2018-11-28T06:48:16.634Z,22.5
2018-11-28T06:49:17.173Z,22.5
2018-11-28T06:50:18.403Z,28.13
2018-11-28T06:51:19.913Z,28.13
2018-11-28T06:52:20.419Z,28.13
2018-11-28T06:53:20.742Z,28.13
2018-11-28T06:54:21.968Z,33.75
2018-11-28T06:55:23.766Z,33.75
2018-11-28T06:56:24.272Z,33.75
2018-11-28T06:57:26.330Z,39.38
2018-11-28T06:58:26.835Z,39.38
2018-11-28T06:59:27.062Z,39.38
2018-11-28T07:00:28.571Z,45
2018-11-28T07:01:29.641Z,45
2018-11-28T07:02:29.871Z,45
2018-11-28T07:03:30.153Z,50.63
2018-11-28T07:04:31.936Z,50.63
2018-11-28T07:05:32.832Z,50.63
2018-11-28T07:06:34.136Z,56.25
2018-11-28T07:07:34.037Z,56.25
2018-11-28T07:08:35.823Z,56.25
2018-11-28T07:09:35.248Z,61.88
2018-11-28T07:10:35.797Z,61.88
2018-11-28T07:11:37.137Z,61.88
2018-11-28T07:12:37.922Z,67.5
2018-11-28T07:13:38.758Z,73.13
2018-11-28T07:14:38.990Z,73.13
2018-11-28T07:15:40.493Z,78.75
2018-11-28T07:16:40.999Z,78.75
2018-11-28T07:17:41.781Z,78.75
2018-11-28T07:18:42.563Z,78.75
2018-11-28T07:19:43.091Z,84.38
2018-11-28T07:20:43.773Z,95.63
2018-11-28T07:21:44.001Z,101.25
2018-11-28T07:22:44.506Z,101.25
2018-11-28T07:23:45.188Z,151.88
2018-11-28T07:24:46.420Z,241.88
2018-11-28T07:25:47.484Z,416.25
2018-11-28T07:26:48.270Z,675
2018-11-28T07:27:49.341Z,618.75
2018-11-28T07:28:49.846Z,483.75
2018-11-28T07:29:50.633Z,596.25
2018-11-28T07:30:51.462Z,731.25
2018-11-28T07:31:52.247Z,826.88
2018-11-28T07:32:52.754Z,967.5
2018-11-28T07:33:53.317Z,1046.25
2018-11-28T07:34:53.549Z,883.13
2018-11-28T07:35:55.053Z,697.5
2018-11-28T07:36:55.296Z,731.25
2018-11-28T07:37:56.364Z,826.88
2018-11-28T07:38:57.151Z,776.25
2018-11-28T07:39:57.659Z,646.88
2018-11-28T07:40:58.446Z,658.13
2018-11-28T07:41:58.952Z,776.25
2018-11-28T07:43:01.014Z,663.75
2018-11-28T07:44:02.702Z,562.5
2018-11-28T07:45:02.518Z,556.88
2018-11-28T07:46:03.025Z,556.88
2018-11-28T07:47:03.822Z,551.25
2018-11-28T07:48:04.886Z,466.88
2018-11-28T07:49:05.117Z,410.63
2018-11-28T07:50:06.845Z,315
2018-11-28T07:51:07.141Z,236.25
2018-11-28T07:52:08.718Z,213.75
2018-11-28T07:53:09.275Z,225
2018-11-28T07:54:11.394Z,253.13
2018-11-28T07:55:11.493Z,303.75
2018-11-28T07:56:11.394Z,281.25
2018-11-28T07:57:13.462Z,354.38
2018-11-28T07:58:13.972Z,630
2018-11-28T07:59:14.485Z,736.88
2018-11-28T08:00:15.814Z,534.38
2018-11-28T08:01:17.045Z,354.38
2018-11-28T08:02:17.831Z,264.38
2018-11-28T08:03:18.623Z,258.75
2018-11-28T08:04:21.132Z,247.5
2018-11-28T08:05:21.004Z,253.13
2018-11-28T08:06:21.800Z,264.38
2018-11-28T08:07:22.041Z,264.38
2018-11-28T08:08:25.039Z,331.88
2018-11-28T08:09:25.130Z,472.5
2018-11-28T08:10:25.933Z,500.63
2018-11-28T08:11:27.644Z,500.63
2018-11-28T08:12:27.430Z,393.75
2018-11-28T08:13:28.492Z,388.13
2018-11-28T08:14:29.050Z,416.25
2018-11-28T08:15:30.135Z,320.63
2018-11-28T08:16:30.917Z,275.63
2018-11-28T08:17:32.950Z,292.5
2018-11-28T08:18:33.459Z,286.88
2018-11-28T08:19:35.075Z,281.25
2018-11-28T08:20:35.310Z,275.63
2018-11-28T08:21:36.651Z,258.75
2018-11-28T08:22:38.878Z,247.5
2018-11-28T08:23:39.382Z,247.5
2018-11-28T08:24:42.008Z,253.13
2018-11-28T08:25:40.529Z,281.25
2018-11-28T08:26:41.746Z,320.63
2018-11-28T08:27:44.738Z,360
2018-11-28T08:28:43.063Z,331.88
2018-11-28T08:29:44.858Z,399.38
2018-11-28T08:30:45.932Z,320.63
2018-11-28T08:31:46.439Z,270
2018-11-28T08:32:47.227Z,264.38
2018-11-28T08:33:48.297Z,270
2018-11-28T08:34:53.593Z,326.25
2018-11-28T08:35:03.033Z,348.75
2018-11-28T08:36:00.588Z,416.25
2018-11-28T08:37:02.112Z,551.25
2018-11-28T08:38:03.180Z,416.25
2018-11-28T08:39:04.182Z,365.63
2018-11-28T08:40:05.252Z,354.38
2018-11-28T08:41:05.759Z,309.38
2018-11-28T08:42:07.546Z,331.88
2018-11-28T08:43:07.779Z,309.38
2018-11-28T08:44:10.122Z,292.5
2018-11-28T08:45:09.630Z,315
2018-11-28T08:46:10.851Z,303.75
2018-11-28T08:47:10.639Z,376.88
2018-11-28T08:48:11.986Z,455.63
2018-11-28T08:49:12.773Z,551.25
2018-11-28T08:50:14.390Z,703.13
2018-11-28T08:51:14.182Z,523.13
2018-11-28T08:52:15.438Z,365.63
2018-11-28T08:53:16.834Z,371.25
2018-11-28T08:54:17.981Z,365.63
2018-11-28T08:55:19.061Z,360
2018-11-28T08:56:19.581Z,438.75
2018-11-28T08:57:19.887Z,590.63
2018-11-28T08:58:20.722Z,506.25
2018-11-28T08:59:23.609Z,393.75
2018-11-28T09:00:21.805Z,393.75
2018-11-28T09:01:22.409Z,438.75
2018-11-28T09:02:23.524Z,438.75
2018-11-28T09:03:23.754Z,421.88
2018-11-28T09:04:24.825Z,371.25
2018-11-28T09:05:26.157Z,483.75
2018-11-28T09:06:26.716Z,495
2018-11-28T09:07:27.226Z,495
2018-11-28T09:08:27.462Z,815.63
2018-11-28T09:09:28.250Z,1125
2018-11-28T09:10:29.355Z,1215
2018-11-28T09:11:29.881Z,1130.63
2018-11-28T09:12:30.667Z,1186.88
2018-11-28T09:13:31.728Z,1372.5
2018-11-28T09:14:32.516Z,1535.63
2018-11-28T09:15:34.335Z,1282.5
2018-11-28T09:16:34.907Z,1276.88
2018-11-28T09:17:35.469Z,849.38
2018-11-28T09:18:35.982Z,1074.38
2018-11-28T09:19:37.042Z,1681.88
2018-11-28T09:20:37.553Z,1288.13
2018-11-28T09:21:37.802Z,742.5
2018-11-28T09:22:39.032Z,871.88
2018-11-28T09:23:40.542Z,686.25
2018-11-28T09:24:41.058Z,624.38
2018-11-28T09:25:42.571Z,573.75
2018-11-28T09:26:42.870Z,556.88
2018-11-28T09:27:44.103Z,618.75
2018-11-28T09:28:46.799Z,888.75
2018-11-28T09:29:47.311Z,821.25
2018-11-28T09:30:48.106Z,753.75
2018-11-28T09:31:50.073Z,1018.13
2018-11-28T09:32:50.880Z,1226.25
2018-11-28T09:33:51.395Z,1046.25
2018-11-28T09:34:51.919Z,753.75
2018-11-28T09:35:53.428Z,652.5
2018-11-28T09:36:54.711Z,703.13
2018-11-28T09:37:56.219Z,630
2018-11-28T09:38:56.734Z,793.13
2018-11-28T09:39:56.967Z,871.88
2018-11-28T09:40:58.038Z,1063.13
2018-11-28T09:41:58.828Z,1209.38
2018-11-28T09:42:59.626Z,1074.38
2018-11-28T09:44:00.691Z,1102.5
2018-11-28T09:45:01.204Z,714.38
2018-11-28T09:46:01.720Z,742.5
2018-11-28T09:47:02.299Z,871.88
2018-11-28T09:48:04.649Z,911.25
2018-11-28T09:49:04.161Z,1203.75
2018-11-28T09:50:04.674Z,1035
2018-11-28T09:51:06.188Z,770.63
2018-11-28T09:52:06.704Z,646.88
2018-11-28T09:53:07.769Z,658.13
2018-11-28T09:54:09.019Z,562.5
2018-11-28T09:55:09.543Z,624.38
2018-11-28T09:56:10.329Z,821.25
2018-11-28T09:57:11.181Z,826.88
2018-11-28T09:58:11.971Z,1046.25
2018-11-28T09:59:12.245Z,1153.13
2018-11-28T10:00:12.808Z,1040.63
2018-11-28T10:01:13.317Z,1164.38
2018-11-28T10:02:14.110Z,855
2018-11-28T10:03:15.177Z,922.5
2018-11-28T10:04:16.498Z,781.88
2018-11-28T10:05:16.289Z,894.38
2018-11-28T10:06:17.081Z,1080
2018-11-28T10:07:17.695Z,1243.13
2018-11-28T10:08:17.931Z,1507.5
2018-11-28T10:09:18.452Z,1271.25
2018-11-28T10:10:20.521Z,1333.13
2018-11-28T10:11:21.687Z,1316.25
2018-11-28T10:12:22.530Z,1366.88
2018-11-28T10:13:23.424Z,1411.88
2018-11-28T10:14:24.214Z,1406.25
2018-11-28T10:15:24.738Z,1530
2018-11-28T10:16:25.809Z,1535.63
2018-11-28T10:17:26.454Z,1333.13
2018-11-28T10:18:26.975Z,1383.75
2018-11-28T10:19:28.214Z,1749.38
2018-11-28T10:20:30.010Z,1794.38
2018-11-28T10:21:30.524Z,1749.38
2018-11-28T10:22:31.762Z,1816.88
2018-11-28T10:23:32.277Z,1873.13
2018-11-28T10:24:34.374Z,2418.75
2018-11-28T10:25:34.208Z,2424.38
2018-11-28T10:26:34.723Z,2295
2018-11-28T10:27:35.804Z,2430
2018-11-28T10:28:35.328Z,2182.5
2018-11-28T10:29:36.122Z,2109.38
2018-11-28T10:30:36.719Z,2081.25
2018-11-28T10:31:37.507Z,2233.13
2018-11-28T10:32:37.742Z,1957.5
2018-11-28T10:33:38.986Z,2013.75
2018-11-28T10:34:41.055Z,2041.88
2018-11-28T10:35:42.589Z,2424.38
2018-11-28T10:36:42.799Z,2115
2018-11-28T10:37:43.404Z,2255.63
2018-11-28T10:38:44.194Z,2120.63
2018-11-28T10:39:44.712Z,1828.13
2018-11-28T10:40:46.504Z,2070
2018-11-28T10:41:47.577Z,1558.13
2018-11-28T10:42:48.663Z,1254.38
2018-11-28T10:43:49.452Z,1265.63
2018-11-28T10:44:50.251Z,1423.13
2018-11-28T10:45:50.487Z,1333.13
2018-11-28T10:46:51.281Z,1434.38
2018-11-28T10:47:51.849Z,1288.13
2018-11-28T10:48:52.981Z,1299.38
2018-11-28T10:49:53.497Z,1507.5
2018-11-28T10:50:54.288Z,1968.75
2018-11-28T10:51:54.525Z,2047.5
2018-11-28T10:52:55.875Z,1800
2018-11-28T10:53:56.970Z,1428.75
2018-11-28T10:54:56.232Z,1186.88
2018-11-28T10:55:57.754Z,1248.75
2018-11-28T10:56:58.549Z,905.63
2018-11-28T10:57:59.698Z,1147.5
2018-11-28T10:59:00.209Z,1636.88
2018-11-28T11:00:00.732Z,1552.5
2018-11-28T11:01:01.245Z,1642.5
2018-11-28T11:02:01.484Z,1130.63
2018-11-28T11:03:02.277Z,1327.5
2018-11-28T11:04:03.657Z,1248.75
2018-11-28T11:05:04.181Z,956.25
2018-11-28T11:06:04.418Z,1389.38
2018-11-28T11:07:05.932Z,1451.25
2018-11-28T11:08:07.352Z,1029.38
2018-11-28T11:09:07.866Z,956.25
2018-11-28T11:10:08.697Z,1530
2018-11-28T11:11:09.211Z,1440
2018-11-28T11:12:11.564Z,1586.25
2018-11-28T11:13:11.244Z,1805.63
2018-11-28T11:14:12.043Z,1563.75
2018-11-28T11:15:12.280Z,1125
2018-11-28T11:16:13.524Z,995.63
2018-11-28T11:17:15.319Z,742.5
2018-11-28T11:18:15.341Z,888.75
2018-11-28T11:19:15.849Z,945
2018-11-28T11:20:17.082Z,804.38
2018-11-28T11:21:18.595Z,725.63
2018-11-28T11:22:20.403Z,607.5
2018-11-28T11:23:20.720Z,534.38
2018-11-28T11:24:21.292Z,545.63
2018-11-28T11:25:22.524Z,658.13
2018-11-28T11:26:24.042Z,804.38
2018-11-28T11:27:24.555Z,686.25
2018-11-28T11:28:42.746Z,658.13
2018-11-28T11:29:40.404Z,708.75
2018-11-28T11:30:40.442Z,551.25
2018-11-28T11:31:40.579Z,691.88
2018-11-28T11:32:40.843Z,832.5
2018-11-28T11:33:43.250Z,945
2018-11-28T11:34:42.917Z,995.63
2018-11-28T11:35:43.155Z,697.5
2018-11-28T11:36:44.668Z,753.75
2018-11-28T11:37:44.911Z,613.13
2018-11-28T11:38:46.421Z,590.63
2018-11-28T11:39:46.849Z,585
2018-11-28T11:40:48.909Z,562.5
2018-11-28T11:41:49.705Z,759.38
2018-11-28T11:42:49.776Z,753.75
2018-11-28T11:43:50.295Z,556.88
2018-11-28T11:44:51.629Z,922.5
2018-11-28T11:45:53.423Z,1136.25
2018-11-28T11:47:07.845Z,916.88
2018-11-28T11:48:07.565Z,748.13
2018-11-28T11:49:08.394Z,720
2018-11-28T11:50:08.687Z,849.38
2018-11-28T11:51:09.198Z,444.38
2018-11-28T11:52:09.434Z,438.75
2018-11-28T11:53:10.322Z,461.25
2018-11-28T11:54:11.963Z,483.75
2018-11-28T11:55:12.340Z,478.13
2018-11-28T11:56:12.138Z,641.25
2018-11-28T11:57:12.933Z,551.25
2018-11-28T11:58:13.802Z,630
2018-11-28T11:59:14.330Z,585
2018-11-28T12:00:15.675Z,810
2018-11-28T12:01:15.303Z,765
2018-11-28T12:02:16.214Z,720
2018-11-28T12:03:17.301Z,663.75
2018-11-28T12:04:17.813Z,781.88
2018-11-28T12:05:18.326Z,618.75
2018-11-28T12:06:18.921Z,534.38
2018-11-28T12:07:24.629Z,624.38
2018-11-28T12:08:24.215Z,686.25
2018-11-28T12:09:26.877Z,663.75
2018-11-28T12:10:25.395Z,596.25
2018-11-28T12:11:28.237Z,871.88
2018-11-28T12:12:29.957Z,781.88
2018-11-28T12:13:33.408Z,759.38
2018-11-28T12:14:48.354Z,618.75
2018-11-28T12:14:55.382Z,573.75
2018-11-28T12:15:54.749Z,658.13
2018-11-28T12:16:55.002Z,579.38
2018-11-28T12:17:56.236Z,720
2018-11-28T12:18:57.758Z,618.75
2018-11-28T12:19:58.556Z,556.88
2018-11-28T12:21:00.179Z,635.63
2018-11-28T12:22:00.417Z,663.75
2018-11-28T12:23:02.047Z,675
2018-11-28T12:24:01.837Z,720
2018-11-28T12:25:06.782Z,691.88
2018-11-28T12:26:04.622Z,624.38
2018-11-28T12:27:05.155Z,613.13
2018-11-28T12:28:06.503Z,725.63
2018-11-28T12:29:07.300Z,635.63
2018-11-28T12:30:08.094Z,489.38
2018-11-28T12:31:12.868Z,450
2018-11-28T12:32:09.691Z,455.63
2018-11-28T12:33:10.480Z,483.75
2018-11-28T12:34:10.717Z,511.88
2018-11-28T12:35:11.242Z,483.75
2018-11-28T12:36:12.472Z,399.38
2018-11-28T12:37:13.264Z,405
2018-11-28T12:38:14.846Z,405
2018-11-28T12:39:16.798Z,405
2018-11-28T12:40:15.603Z,405
2018-11-28T12:41:18.447Z,393.75
2018-11-28T12:42:17.955Z,337.5
2018-11-28T12:43:18.830Z,303.75
2018-11-28T12:44:19.616Z,376.88
2018-11-28T12:45:20.423Z,388.13
2018-11-28T12:46:23.678Z,376.88
2018-11-28T12:47:22.183Z,365.63
2018-11-28T12:48:22.416Z,399.38
2018-11-28T12:49:23.656Z,416.25
2018-11-28T12:50:27.347Z,399.38
2018-11-28T12:51:26.919Z,416.25
2018-11-28T12:52:27.707Z,455.63
2018-11-28T12:53:27.939Z,506.25
2018-11-28T12:54:29.173Z,585
2018-11-28T12:55:29.997Z,590.63
2018-11-28T12:56:30.284Z,489.38
2018-11-28T12:57:31.077Z,483.75
2018-11-28T12:58:31.586Z,703.13
2018-11-28T12:59:32.097Z,691.88
2018-11-28T13:00:32.939Z,888.75
2018-11-28T13:01:34.257Z,1186.88
2018-11-28T13:02:33.767Z,1501.88
2018-11-28T13:03:34.283Z,1276.88
2018-11-28T13:04:34.787Z,1563.75
2018-11-28T13:05:36.299Z,1406.25
2018-11-28T13:06:37.584Z,1597.5
2018-11-28T13:07:38.097Z,1254.38
2018-11-28T13:08:38.652Z,1198.13
2018-11-28T13:09:43.016Z,855
2018-11-28T13:11:01.538Z,646.88
2018-11-28T13:11:10.123Z,798.75
2018-11-28T13:12:07.782Z,686.25
2018-11-28T13:13:08.574Z,444.38
2018-11-28T13:14:09.088Z,360
2018-11-28T13:15:09.323Z,506.25
2018-11-28T13:16:10.639Z,573.75
2018-11-28T13:17:11.176Z,517.5
2018-11-28T13:18:12.695Z,545.63
2018-11-28T13:19:14.085Z,540
2018-11-28T13:20:14.635Z,646.88
2018-11-28T13:21:14.875Z,748.13
2018-11-28T13:22:33.168Z,725.63
2018-11-28T13:22:40.689Z,736.88
2018-11-28T13:23:40.240Z,534.38
2018-11-28T13:24:41.706Z,315
2018-11-28T13:25:42.495Z,483.75
2018-11-28T13:26:43.286Z,354.38
2018-11-28T13:27:43.527Z,393.75
2018-11-28T13:28:46.692Z,354.38
2018-11-28T13:29:46.230Z,270
2018-11-28T13:30:46.748Z,236.25
2018-11-28T13:31:47.219Z,196.88
2018-11-28T13:32:48.486Z,213.75
2018-11-28T13:33:49.070Z,213.75
2018-11-28T13:34:49.862Z,230.63
2018-11-28T13:35:50.933Z,225
2018-11-28T13:36:51.165Z,219.38
2018-11-28T13:37:53.508Z,253.13
2018-11-28T13:38:52.745Z,286.88
2018-11-28T13:39:53.257Z,253.13
2018-11-28T13:40:57.914Z,180
2018-11-28T13:41:57.221Z,146.25
2018-11-28T13:42:57.865Z,140.63